createdAt,value
2022-10-05T00:00:00.051Z,101590.00
2022-10-05T00:02:27.033Z,101589.13
2022-10-05T00:04:56.623Z,101595.34
2022-10-05T00:07:25.242Z,101603.13
2022-10-05T00:09:59.672Z,101603.25
2022-10-05T00:12:28.360Z,101603.16
2022-10-05T00:15:01.260Z,101608.56
2022-10-05T00:17:30.663Z,101596.06
2022-10-05T00:19:57.275Z,101597.09
2022-10-05T00:22:31.794Z,101594.47
2022-10-05T00:25:00.513Z,101597.03
2022-10-05T00:27:37.417Z,101595.25
2022-10-05T00:30:18.863Z,101596.91
2022-10-05T00:32:45.961Z,101597.81
2022-10-05T00:35:13.988Z,101587.31
2022-10-05T00:37:41.103Z,101578.56
2022-10-05T00:40:36.679Z,101591.63
2022-10-05T00:43:22.692Z,101590.69
2022-10-05T00:45:56.066Z,101589.13
2022-10-05T00:49:02.052Z,101579.66
2022-10-05T00:51:31.429Z,101584.69
2022-10-05T00:54:18.965Z,101577.72
2022-10-05T00:57:03.733Z,101567.56
2022-10-05T00:59:47.691Z,101553.63
2022-10-05T01:02:35.807Z,101560.38
2022-10-05T01:05:12.820Z,101546.38
2022-10-05T01:08:00.206Z,101541.03
2022-10-05T01:10:37.749Z,101544.72
2022-10-05T01:13:11.942Z,101546.47
2022-10-05T01:15:51.462Z,101550.72
2022-10-05T01:18:24.477Z,101548.94
2022-10-05T01:21:17.331Z,101554.13
2022-10-05T01:24:02.030Z,101547.25
2022-10-05T01:26:59.248Z,101543.88
2022-10-05T01:29:49.464Z,101537.72
2022-10-05T01:32:38.097Z,101535.16
2022-10-05T01:35:28.891Z,101524.81
2022-10-05T01:38:15.786Z,101525.63
2022-10-05T01:40:55.673Z,101526.44
2022-10-05T01:43:38.797Z,101520.22
2022-10-05T01:46:11.219Z,101522.16
2022-10-05T01:48:37.621Z,101523.78
2022-10-05T01:51:28.365Z,101534.16
2022-10-05T01:54:13.145Z,101529.53
2022-10-05T01:56:43.131Z,101528.09
2022-10-05T01:59:53.477Z,101520.31
2022-10-05T02:02:23.664Z,101516.06
2022-10-05T02:05:08.791Z,101516.91
2022-10-05T02:08:00.282Z,101514.41
2022-10-05T02:10:41.119Z,101505.59
2022-10-05T02:13:20.714Z,101494.28
2022-10-05T02:15:58.340Z,101504.59
2022-10-05T02:18:37.879Z,101508.16
2022-10-05T02:21:05.460Z,101502.06
2022-10-05T02:23:36.221Z,101510.72
2022-10-05T02:26:04.710Z,101504.81
2022-10-05T02:28:53.383Z,101508.03
2022-10-05T02:31:24.152Z,101502.06
2022-10-05T02:33:50.632Z,101501.19
2022-10-05T02:36:23.711Z,101506.41
2022-10-05T02:39:16.299Z,101497.00
2022-10-05T02:42:13.223Z,101491.59
2022-10-05T02:45:13.424Z,101486.31
2022-10-05T02:48:06.113Z,101482.88
2022-10-05T02:50:52.608Z,101468.09
2022-10-05T02:53:48.496Z,101469.88
2022-10-05T02:56:40.145Z,101457.81
2022-10-05T02:59:31.209Z,101466.47
2022-10-05T03:02:22.480Z,101462.81
2022-10-05T03:05:15.303Z,101455.03
2022-10-05T03:07:50.604Z,101456.03
2022-10-05T03:10:26.993Z,101472.53
2022-10-05T03:13:22.223Z,101469.09
2022-10-05T03:16:24.015Z,101468.19
2022-10-05T03:19:16.186Z,101458.78
2022-10-05T03:22:00.860Z,101457.03
2022-10-05T03:24:52.550Z,101454.41
2022-10-05T03:27:33.469Z,101448.41
2022-10-05T03:30:10.335Z,101443.34
2022-10-05T03:32:55.834Z,101445.78
2022-10-05T03:35:34.374Z,101445.81
2022-10-05T03:38:13.970Z,101444.00
2022-10-05T03:40:46.725Z,101430.09
2022-10-05T03:43:21.569Z,101429.16
2022-10-05T03:46:04.335Z,101425.72
2022-10-05T03:48:38.567Z,101423.16
2022-10-05T03:51:32.472Z,101431.00
2022-10-05T03:54:37.934Z,101425.81
2022-10-05T03:57:13.541Z,101420.69
2022-10-05T03:59:52.075Z,101421.56
2022-10-05T04:02:24.823Z,101429.38
2022-10-05T04:04:59.241Z,101421.66
2022-10-05T04:07:52.054Z,101434.53
2022-10-05T04:10:33.896Z,101431.00
2022-10-05T04:13:11.205Z,101436.19
2022-10-05T04:15:50.496Z,101432.81
2022-10-05T04:18:32.200Z,101434.53
2022-10-05T04:21:05.379Z,101436.38
2022-10-05T04:23:58.376Z,101439.78
2022-10-05T04:26:54.512Z,101428.47
2022-10-05T04:29:29.812Z,101428.59
2022-10-05T04:32:05.159Z,101417.34
2022-10-05T04:35:02.540Z,101416.47
2022-10-05T04:37:47.187Z,101418.09
2022-10-05T04:40:51.379Z,101409.53
2022-10-05T04:43:23.797Z,101417.31
2022-10-05T04:46:18.951Z,101412.78
2022-10-05T04:49:10.227Z,101414.66
2022-10-05T04:51:51.179Z,101406.69
2022-10-05T04:54:42.286Z,101399.84
2022-10-05T04:57:20.870Z,101400.84
2022-10-05T05:00:25.149Z,101405.91
2022-10-05T05:03:19.565Z,101404.16
2022-10-05T05:06:18.515Z,101411.00
2022-10-05T05:09:14.722Z,101405.84
2022-10-05T05:11:52.574Z,101408.53
2022-10-05T05:14:28.030Z,101418.13
2022-10-05T05:17:13.120Z,101405.94
2022-10-05T05:20:07.802Z,101396.44
2022-10-05T05:23:18.589Z,101403.44
2022-10-05T05:26:27.523Z,101399.75
2022-10-05T05:29:30.652Z,101393.75
2022-10-05T05:32:06.414Z,101393.84
2022-10-05T05:34:37.569Z,101391.25
2022-10-05T05:37:19.330Z,101392.03
2022-10-05T05:40:10.034Z,101390.25
2022-10-05T05:43:04.800Z,101394.72
2022-10-05T05:45:57.551Z,101386.13
2022-10-05T05:48:43.805Z,101386.13
2022-10-05T05:51:26.151Z,101382.69
2022-10-05T05:54:22.340Z,101391.41
2022-10-05T05:57:00.053Z,101396.56
2022-10-05T05:59:37.768Z,101388.75
2022-10-05T06:02:13.216Z,101370.53
2022-10-05T06:04:45.867Z,101368.88
2022-10-05T06:07:30.615Z,101382.72
2022-10-05T06:10:29.238Z,101379.16
2022-10-05T06:13:01.567Z,101379.22
2022-10-05T06:15:38.452Z,101370.53
2022-10-05T06:18:11.251Z,101382.72
2022-10-05T06:20:49.287Z,101377.56
2022-10-05T06:23:42.140Z,101377.50
2022-10-05T06:26:10.903Z,101392.16
2022-10-05T06:28:38.462Z,101374.94
2022-10-05T06:31:20.695Z,101377.56
2022-10-05T06:33:54.361Z,101391.63
2022-10-05T06:36:48.631Z,101389.03
2022-10-05T06:39:23.732Z,101401.16
2022-10-05T06:42:08.449Z,101404.63
2022-10-05T06:44:39.554Z,101398.59
2022-10-05T06:47:38.026Z,101400.31
2022-10-05T06:50:13.741Z,101392.47
2022-10-05T06:53:17.748Z,101397.59
2022-10-05T06:56:08.770Z,101397.72
2022-10-05T06:59:00.620Z,101388.31
2022-10-05T07:01:30.187Z,101400.47
2022-10-05T07:04:36.970Z,101389.19
2022-10-05T07:07:42.509Z,101375.50
2022-10-05T07:10:21.048Z,101380.59
2022-10-05T07:12:56.547Z,101369.34
2022-10-05T07:15:42.527Z,101371.91
2022-10-05T07:19:06.454Z,101378.06
2022-10-05T07:22:03.365Z,101378.09
2022-10-05T07:24:42.397Z,101391.13
2022-10-05T07:27:22.652Z,101385.09
2022-10-05T07:30:03.530Z,101391.19
2022-10-05T07:32:50.371Z,101386.00
2022-10-05T07:36:04.470Z,101385.13
2022-10-05T07:38:33.501Z,101385.22
2022-10-05T07:41:08.097Z,101382.66
2022-10-05T07:44:02.073Z,101386.06
2022-10-05T07:46:45.601Z,101383.56
2022-10-05T07:49:22.642Z,101387.88
2022-10-05T07:51:55.716Z,101391.22
2022-10-05T07:54:28.523Z,101391.19
2022-10-05T07:57:09.675Z,101393.03
2022-10-05T07:59:58.200Z,101397.44
2022-10-05T08:02:32.732Z,101400.94
2022-10-05T08:05:05.213Z,101399.31
2022-10-05T08:07:34.434Z,101404.56
2022-10-05T08:10:18.672Z,101407.22
2022-10-05T08:13:03.401Z,101398.63
2022-10-05T08:15:47.459Z,101398.69
2022-10-05T08:18:41.340Z,101405.63
2022-10-05T08:21:12.023Z,101401.31
2022-10-05T08:24:04.015Z,101407.38
2022-10-05T08:26:50.186Z,101410.13
2022-10-05T08:29:25.846Z,101408.56
2022-10-05T08:31:57.700Z,101404.25
2022-10-05T08:34:48.781Z,101410.41
2022-10-05T08:37:18.140Z,101397.41
2022-10-05T08:40:00.483Z,101405.31
2022-10-05T08:43:09.241Z,101407.03
2022-10-05T08:46:12.463Z,101409.72
2022-10-05T08:48:48.494Z,101387.97
2022-10-05T08:51:38.285Z,101396.63
2022-10-05T08:54:42.505Z,101394.88
2022-10-05T08:57:46.811Z,101389.81
2022-10-05T09:00:19.156Z,101387.28
2022-10-05T09:03:06.856Z,101384.75
2022-10-05T09:05:57.946Z,101388.31
2022-10-05T09:09:06.316Z,101394.41
2022-10-05T09:11:41.665Z,101391.84
2022-10-05T09:14:33.485Z,101395.38
2022-10-05T09:17:22.537Z,101386.72
2022-10-05T09:20:17.880Z,101385.06
2022-10-05T09:23:05.606Z,101387.72
2022-10-05T09:25:50.984Z,101377.34
2022-10-05T09:28:25.420Z,101380.81
2022-10-05T09:30:58.407Z,101378.31
2022-10-05T09:33:57.141Z,101373.91
2022-10-05T09:36:32.702Z,101373.00
2022-10-05T09:39:27.625Z,101385.13
2022-10-05T09:42:19.988Z,101365.09
2022-10-05T09:45:05.496Z,101371.28
2022-10-05T09:47:50.540Z,101360.03
2022-10-05T09:50:53.656Z,101364.34
2022-10-05T09:53:40.885Z,101350.53
2022-10-05T09:56:29.983Z,101355.72
2022-10-05T09:59:32.101Z,101360.91
2022-10-05T10:02:16.653Z,101367.84
2022-10-05T10:05:01.612Z,101364.41
2022-10-05T10:07:31.479Z,101357.41
2022-10-05T10:10:32.116Z,101347.84
2022-10-05T10:13:10.906Z,101362.59
2022-10-05T10:16:04.531Z,101348.63
2022-10-05T10:18:48.587Z,101343.44
2022-10-05T10:21:30.753Z,101336.53
2022-10-05T10:24:21.191Z,101345.22
2022-10-05T10:27:11.911Z,101336.56
2022-10-05T10:29:59.127Z,101336.59
2022-10-05T10:33:11.927Z,101348.66
2022-10-05T10:35:47.075Z,101337.41
2022-10-05T10:38:28.530Z,101332.22
2022-10-05T10:41:06.623Z,101338.25
2022-10-05T10:43:57.927Z,101345.16
2022-10-05T10:46:39.239Z,101343.38
2022-10-05T10:49:36.660Z,101346.88
2022-10-05T10:52:34.926Z,101346.00
2022-10-05T10:55:33.785Z,101336.44
2022-10-05T10:58:42.473Z,101339.97
2022-10-05T11:01:34.545Z,101348.63
2022-10-05T11:04:38.917Z,101342.59
2022-10-05T11:07:40.190Z,101337.38
2022-10-05T11:10:25.962Z,101330.44
2022-10-05T11:12:58.539Z,101334.81
2022-10-05T11:16:00.588Z,101327.00
2022-10-05T11:18:56.651Z,101325.25
2022-10-05T11:21:36.727Z,101321.81
2022-10-05T11:24:34.696Z,101320.91
2022-10-05T11:30:19.604Z,101321.81
2022-10-05T11:32:45.998Z,101311.41
2022-10-05T11:35:34.438Z,101312.34
2022-10-05T11:38:16.742Z,101305.34
2022-10-05T11:41:08.750Z,101307.97
2022-10-05T11:44:07.970Z,101308.84
2022-10-05T11:46:53.867Z,101304.53
2022-10-05T11:49:33.689Z,101299.34
2022-10-05T11:52:21.260Z,101288.09
2022-10-05T11:55:11.987Z,101290.72
2022-10-05T11:57:58.310Z,101291.53
2022-10-05T12:00:40.456Z,101285.44
2022-10-05T12:03:27.555Z,101286.44
2022-10-05T12:06:06.865Z,101282.91
2022-10-05T12:09:11.270Z,101272.56
2022-10-05T12:12:03.576Z,101267.28
2022-10-05T12:14:54.889Z,101267.34
2022-10-05T12:17:26.517Z,101263.91
2022-10-05T12:20:16.810Z,101256.97
2022-10-05T12:22:52.446Z,101247.44
2022-10-05T12:25:22.190Z,101248.31
2022-10-05T12:27:56.918Z,101241.41
2022-10-05T12:30:48.818Z,101244.88
2022-10-05T12:33:33.717Z,101235.28
2022-10-05T12:36:07.911Z,101241.41
2022-10-05T12:38:46.813Z,101225.78
2022-10-05T12:41:33.737Z,101222.34
2022-10-05T12:44:18.963Z,101223.19
2022-10-05T12:47:23.912Z,101204.94
2022-10-05T12:49:57.747Z,101209.31
2022-10-05T12:53:01.835Z,101211.06
2022-10-05T12:55:40.165Z,101204.94
2022-10-05T12:58:18.039Z,101205.84
2022-10-05T13:01:01.741Z,101209.31
2022-10-05T13:03:36.830Z,101197.16
2022-10-05T13:06:29.343Z,101203.25
2022-10-05T13:09:30.979Z,101200.63
2022-10-05T13:12:03.790Z,101199.78
2022-10-05T13:14:56.209Z,101186.75
2022-10-05T13:17:37.833Z,101190.19
2022-10-05T13:20:22.887Z,101185.88
2022-10-05T13:22:59.824Z,101185.00
2022-10-05T13:25:32.960Z,101178.91
2022-10-05T13:28:02.404Z,101183.25
2022-10-05T13:30:29.620Z,101182.41
2022-10-05T13:33:04.772Z,101182.41
2022-10-05T13:35:48.536Z,101185.00
2022-10-05T13:38:34.377Z,101182.41
2022-10-05T13:41:28.167Z,101181.53
2022-10-05T13:44:13.578Z,101180.66
2022-10-05T13:46:49.612Z,101186.75
2022-10-05T13:49:38.772Z,101173.69
2022-10-05T13:52:24.849Z,101178.91
2022-10-05T13:55:00.599Z,101177.19
2022-10-05T13:58:02.433Z,101171.06
2022-10-05T14:00:30.432Z,101174.59
2022-10-05T14:02:59.604Z,101171.06
2022-10-05T14:05:32.385Z,101177.22
2022-10-05T14:08:18.967Z,101173.69
2022-10-05T14:10:47.461Z,101176.28
2022-10-05T14:13:29.186Z,101183.28
2022-10-05T14:16:04.355Z,101183.28
2022-10-05T14:18:33.623Z,101181.50
2022-10-05T14:21:16.750Z,101182.41
2022-10-05T14:23:43.495Z,101184.13
2022-10-05T14:26:40.817Z,101166.75
2022-10-05T14:29:17.631Z,101180.63
2022-10-05T14:31:57.826Z,101170.19
2022-10-05T14:34:32.019Z,101168.47
2022-10-05T14:37:01.581Z,101165.88
2022-10-05T14:39:32.731Z,101161.50
2022-10-05T14:42:13.043Z,101161.50
2022-10-05T14:44:39.703Z,101165.84
2022-10-05T14:47:17.757Z,101158.00
2022-10-05T14:50:10.804Z,101155.38
2022-10-05T14:52:38.918Z,101160.63
2022-10-05T14:55:18.245Z,101158.84
2022-10-05T14:57:58.374Z,101154.53
2022-10-05T15:00:26.010Z,101145.81
2022-10-05T15:03:17.956Z,101148.38
2022-10-05T15:06:02.138Z,101140.56
2022-10-05T15:09:09.141Z,101146.63
2022-10-05T15:11:50.751Z,101143.16
2022-10-05T15:14:25.901Z,101134.44
2022-10-05T15:17:02.478Z,101135.31
2022-10-05T15:19:40.995Z,101133.56
2022-10-05T15:22:23.821Z,101126.63
2022-10-05T15:24:50.087Z,101121.38
2022-10-05T15:27:34.993Z,101109.22
2022-10-05T15:30:11.977Z,101113.53
2022-10-05T15:32:49.718Z,101101.34
2022-10-05T15:35:54.191Z,101102.22
2022-10-05T15:38:26.919Z,101089.16
2022-10-05T15:41:15.928Z,101085.69
2022-10-05T15:44:30.223Z,101087.41
2022-10-05T15:47:05.309Z,101083.06
2022-10-05T15:49:59.476Z,101089.16
2022-10-05T15:52:36.532Z,101099.63
2022-10-05T15:55:20.886Z,101106.59
2022-10-05T15:57:59.965Z,101101.34
2022-10-05T16:00:27.337Z,101105.72
2022-10-05T16:03:09.571Z,101109.22
2022-10-05T16:06:12.223Z,101110.06
2022-10-05T16:09:13.504Z,101105.66
2022-10-05T16:12:08.636Z,101106.56
2022-10-05T16:15:03.549Z,101100.50
2022-10-05T16:18:07.759Z,101107.50
2022-10-05T16:20:37.262Z,101106.63
2022-10-05T16:23:26.701Z,101109.28
2022-10-05T16:26:04.524Z,101117.13
2022-10-05T16:28:39.442Z,101106.69
2022-10-05T16:31:11.634Z,101104.97
2022-10-05T16:33:59.053Z,101105.81
2022-10-05T16:37:00.053Z,101109.28
2022-10-05T16:39:44.966Z,101121.47
2022-10-05T16:42:21.174Z,101125.88
2022-10-05T16:45:13.932Z,101122.34
2022-10-05T16:48:06.368Z,101135.38
2022-10-05T16:50:55.062Z,101146.72
2022-10-05T16:53:29.387Z,101150.22
2022-10-05T16:56:03.688Z,101157.16
2022-10-05T16:59:00.917Z,101147.63
2022-10-05T17:01:42.192Z,101155.44
2022-10-05T17:04:27.561Z,101155.44
2022-10-05T17:07:19.306Z,101163.25
2022-10-05T17:10:05.974Z,101161.50
2022-10-05T17:12:51.359Z,101165.88
2022-10-05T17:15:43.330Z,101168.50
2022-10-05T17:18:48.890Z,101172.81
2022-10-05T17:21:32.181Z,101176.31
2022-10-05T17:24:25.116Z,101170.22
2022-10-05T17:27:20.431Z,101171.97
2022-10-05T17:29:55.428Z,101177.19
2022-10-05T17:32:21.735Z,101177.19
2022-10-05T17:35:00.520Z,101179.78
2022-10-05T17:37:26.850Z,101178.91
2022-10-05T17:39:55.499Z,101169.38
2022-10-05T17:42:46.483Z,101172.84
2022-10-05T17:45:13.127Z,101175.44
2022-10-05T17:47:55.927Z,101166.72
2022-10-05T17:51:02.119Z,101168.47
2022-10-05T17:54:04.396Z,101177.19
2022-10-05T17:56:53.352Z,101162.41
2022-10-05T17:59:57.247Z,101163.25
2022-10-05T18:02:39.376Z,101158.94
2022-10-05T18:05:17.689Z,101149.34
2022-10-05T18:07:48.635Z,101150.22
2022-10-05T18:10:28.853Z,101156.31
2022-10-05T18:13:01.307Z,101158.03
2022-10-05T18:15:27.582Z,101151.09
2022-10-05T18:18:00.860Z,101154.56
2022-10-05T18:20:34.641Z,101149.34
2022-10-05T18:23:00.948Z,101147.59
2022-10-05T18:25:45.648Z,101145.84
2022-10-05T18:28:51.015Z,101141.53
2022-10-05T18:31:30.158Z,101145.00
2022-10-05T18:34:15.369Z,101142.38
2022-10-05T18:37:07.300Z,101140.63
2022-10-05T18:40:05.427Z,101138.03
2022-10-05T18:43:03.051Z,101131.09
2022-10-05T18:45:46.159Z,101135.44
2022-10-05T18:48:30.660Z,101121.53
2022-10-05T18:51:03.117Z,101139.78
2022-10-05T18:53:42.773Z,101126.72
2022-10-05T18:56:38.443Z,101140.66
2022-10-05T18:59:25.626Z,101146.75
2022-10-05T19:02:16.650Z,101143.25
2022-10-05T19:05:23.798Z,101146.75
2022-10-05T19:08:10.787Z,101145.84
2022-10-05T19:10:55.387Z,101150.22
2022-10-05T19:13:52.416Z,101152.81
2022-10-05T19:16:46.115Z,101145.88
2022-10-05T19:19:50.145Z,101147.59
2022-10-05T19:22:44.371Z,101150.19
2022-10-05T19:25:20.858Z,101141.53
2022-10-05T19:27:55.597Z,101145.00
2022-10-05T19:30:29.996Z,101145.88
2022-10-05T19:33:30.325Z,101151.94
2022-10-05T19:36:10.216Z,101155.44
2022-10-05T19:38:44.529Z,101162.38
2022-10-05T19:41:29.798Z,101161.50
2022-10-05T19:44:15.366Z,101170.22
2022-10-05T19:46:50.438Z,101167.59
2022-10-05T19:49:43.940Z,101172.81
2022-10-05T19:52:40.721Z,101170.19
2022-10-05T19:55:12.856Z,101176.31
2022-10-05T19:58:22.217Z,101179.78
2022-10-05T20:01:00.142Z,101185.88
2022-10-05T20:03:31.672Z,101188.50
2022-10-05T20:06:04.052Z,101183.28
2022-10-05T20:08:39.516Z,101180.69
2022-10-05T20:11:18.420Z,101185.03
2022-10-05T20:13:52.030Z,101187.63
2022-10-05T20:17:05.525Z,101201.53
2022-10-05T20:19:50.379Z,101185.00
2022-10-05T20:22:39.496Z,101189.34
2022-10-05T20:25:28.751Z,101193.69
2022-10-05T20:27:56.600Z,101178.91
2022-10-05T20:30:28.803Z,101178.91
2022-10-05T20:33:01.450Z,101192.84
2022-10-05T20:35:30.798Z,101192.84
2022-10-05T20:37:59.348Z,101191.97
2022-10-05T20:40:29.045Z,101204.13
2022-10-05T20:42:56.801Z,101209.38
2022-10-05T20:45:23.680Z,101191.97
2022-10-05T20:47:50.655Z,101207.63
2022-10-05T20:50:17.481Z,101210.22
2022-10-05T20:52:43.860Z,101198.91
2022-10-05T20:55:12.595Z,101205.00
2022-10-05T20:57:42.046Z,101211.94
2022-10-05T21:00:13.319Z,101211.97
2022-10-05T21:02:39.898Z,101208.50
2022-10-05T21:05:07.577Z,101208.50
2022-10-05T21:07:34.267Z,101205.03
2022-10-05T21:10:01.407Z,101208.53
2022-10-05T21:12:27.822Z,101210.22
2022-10-05T21:14:54.204Z,101218.94
2022-10-05T21:17:20.543Z,101216.34
2022-10-05T21:19:47.078Z,101218.94
2022-10-05T21:22:13.476Z,101219.81
2022-10-05T21:24:40.936Z,101219.81
2022-10-05T21:27:08.104Z,101217.22
2022-10-05T21:29:35.861Z,101225.91
2022-10-05T21:32:02.694Z,101238.94
2022-10-05T21:34:29.263Z,101230.25
2022-10-05T21:36:55.661Z,101227.66
2022-10-05T21:39:22.041Z,101227.66
2022-10-05T21:41:49.844Z,101245.94
2022-10-05T21:44:16.686Z,101232.00
2022-10-05T21:46:43.104Z,101236.34
2022-10-05T21:49:09.830Z,101234.63
2022-10-05T21:51:37.008Z,101244.19
2022-10-05T21:54:12.165Z,101245.06
2022-10-05T21:56:43.209Z,101248.53
2022-10-05T21:59:13.391Z,101237.22
2022-10-05T22:01:39.772Z,101233.75
2022-10-05T22:04:07.573Z,101247.66
2022-10-05T22:06:35.879Z,101239.81
2022-10-05T22:09:03.371Z,101255.50
2022-10-05T22:11:31.568Z,101238.94
2022-10-05T22:14:04.080Z,101245.91
2022-10-05T22:16:34.254Z,101257.25
2022-10-05T22:19:05.431Z,101247.66
2022-10-05T22:21:34.431Z,101255.50
2022-10-05T22:24:02.313Z,101250.25
2022-10-05T22:26:28.944Z,101272.00
2022-10-05T22:28:56.705Z,101268.53
2022-10-05T22:31:23.750Z,101282.47
2022-10-05T22:33:50.432Z,101289.44
2022-10-05T22:36:16.854Z,101299.03
2022-10-05T22:38:44.709Z,101325.06
2022-10-05T22:41:12.108Z,101359.00
2022-10-05T22:43:39.077Z,101340.63
2022-10-05T22:46:13.315Z,101350.09
2022-10-05T22:48:40.189Z,101373.56
2022-10-05T22:51:07.669Z,101341.44
2022-10-05T22:53:34.990Z,101339.66
2022-10-05T22:56:12.574Z,101339.63
2022-10-05T22:58:40.205Z,101364.00
2022-10-05T23:01:09.008Z,101367.38
2022-10-05T23:03:35.677Z,101374.34
2022-10-05T23:06:06.010Z,101380.38
2022-10-05T23:08:33.895Z,101389.91
2022-10-05T23:11:02.296Z,101388.19
2022-10-05T23:13:28.829Z,101384.66
2022-10-05T23:15:55.319Z,101379.47
2022-10-05T23:18:21.688Z,101380.38
2022-10-05T23:20:55.459Z,101374.22
2022-10-05T23:23:22.988Z,101377.72
2022-10-05T23:25:50.547Z,101382.94
2022-10-05T23:28:17.116Z,101388.09
2022-10-05T23:30:44.348Z,101387.22
2022-10-05T23:33:10.767Z,101386.31
2022-10-05T23:35:37.100Z,101393.28
2022-10-05T23:38:03.719Z,101409.84
2022-10-05T23:40:30.198Z,101406.34
2022-10-05T23:42:56.581Z,101434.16
2022-10-05T23:45:22.916Z,101443.72
2022-10-05T23:47:49.294Z,101452.41
2022-10-05T23:50:16.555Z,101446.28
2022-10-05T23:52:43.329Z,101466.28
2022-10-05T23:55:09.987Z,101472.38
2022-10-05T23:57:36.599Z,101467.09
